Time;durP1;ratioP1;P1;durP2;ratioP2;P2;SDS_P1;SDS_P2;PMS_P1;PMS_P2;Temp;Humidity;BMP_temperature;BMP_pressure;BME280_temperature;BME280_humidity;BME280_pressure;Samples;Min_cycle;Max_cycle;Signal;HPM_P1;HPM_P2
2021/11/30 00:01:09;;;;;;;;;15.50;14.00;;;;;10.37;100.00;101483.81;5090030;27;45333;-79
2021/11/30 00:03:37;;;;;;;;;23.50;14.00;;;;;10.19;100.00;101487.47;5099648;27;45308;-79
2021/11/30 00:06:03;;;;;;;;;13.75;11.25;;;;;10.07;100.00;101476.59;5096456;27;46739;-81
2021/11/30 00:08:31;;;;;;;;;18.00;12.50;;;;;10.05;100.00;101475.81;5081050;27;45558;-80
2021/11/30 00:11:00;;;;;;;;;19.25;16.50;;;;;10.10;100.00;101472.94;5086242;27;45363;-80
2021/11/30 00:13:28;;;;;;;;;16.75;12.00;;;;;10.04;100.00;101478.53;5092491;27;45458;-79
2021/11/30 00:15:55;;;;;;;;;16.25;14.25;;;;;10.17;100.00;101476.97;5083080;27;47955;-79
2021/11/30 00:18:22;;;;;;;;;13.25;13.25;;;;;10.14;100.00;101480.59;5101679;27;45747;-79
2021/11/30 00:20:47;;;;;;;;;19.25;11.25;;;;;10.18;100.00;101478.69;5076918;27;45554;-79
2021/11/30 00:23:14;;;;;;;;;17.50;13.25;;;;;10.30;100.00;101470.09;5077253;27;45503;-79
2021/11/30 00:25:40;;;;;;;;;14.25;12.75;;;;;10.56;100.00;101473.09;5084411;28;45301;-79
2021/11/30 00:28:07;;;;;;;;;17.00;12.00;;;;;10.66;100.00;101468.97;5081667;28;45483;-79
2021/11/30 00:30:33;;;;;;;;;16.00;14.25;;;;;10.74;100.00;101466.78;5062740;28;45363;-79
2021/11/30 00:33:00;;;;;;;;;14.75;11.50;;;;;10.76;100.00;101464.88;5080495;27;45500;-78
2021/11/30 00:35:26;;;;;;;;;15.00;13.50;;;;;10.65;100.00;101469.94;5062263;28;46598;-78
2021/11/30 00:37:52;;;;;;;;;13.50;8.00;;;;;10.54;100.00;101464.41;5063772;27;45821;-78
2021/11/30 00:40:18;;;;;;;;;14.25;11.75;;;;;10.56;100.00;101470.47;5080955;27;45354;-78
2021/11/30 00:42:43;;;;;;;;;16.00;10.00;;;;;10.53;100.00;101455.63;5081772;27;45485;-78
2021/11/30 00:45:13;;;;;;;;;13.50;10.00;;;;;10.73;100.00;101451.88;5079483;28;47020;-78
2021/11/30 00:47:46;;;;;;;;;15.25;9.50;;;;;10.63;100.00;101450.69;5094474;27;45597;-78
2021/11/30 00:50:11;;;;;;;;;16.50;12.00;;;;;10.40;100.00;101455.44;5094160;27;45496;-78
2021/11/30 00:52:37;;;;;;;;;13.50;10.25;;;;;10.35;100.00;101454.88;5100774;27;45481;-78
2021/11/30 00:55:05;;;;;;;;;12.25;9.25;;;;;10.52;100.00;101448.66;5066382;28;47243;-78
2021/11/30 00:57:31;;;;;;;;;19.50;12.25;;;;;10.43;100.00;101455.28;5084534;27;45311;-78
2021/11/30 00:59:56;;;;;;;;;16.25;10.00;;;;;10.50;100.00;101454.00;5063616;28;45520;-78
2021/11/30 01:02:22;;;;;;;;;13.25;11.75;;;;;10.63;100.00;101451.53;5067269;28;45552;-78
2021/11/30 01:04:47;;;;;;;;;16.25;10.25;;;;;10.71;100.00;101459.03;5074283;28;45963;-78
2021/11/30 01:07:13;;;;;;;;;12.75;12.75;;;;;10.70;100.00;101454.69;5078215;27;45251;-78
2021/11/30 01:09:41;;;;;;;;;19.25;11.00;;;;;10.70;100.00;101454.69;5063917;28;45476;-78
2021/11/30 01:12:07;;;;;;;;;13.75;11.25;;;;;10.58;100.00;101444.78;5061121;28;45921;-78
2021/11/30 01:14:33;;;;;;;;;15.25;11.75;;;;;10.53;100.00;101452.13;5079581;28;45366;-78
2021/11/30 01:16:59;;;;;;;;;12.50;10.50;;;;;10.49;100.00;101449.66;5069296;28;45466;-78
2021/11/30 01:19:24;;;;;;;;;16.50;13.75;;;;;10.59;100.00;101451.78;5054475;28;45535;-78
2021/11/30 01:21:51;;;;;;;;;13.00;13.00;;;;;10.56;100.00;101442.22;5043894;28;45286;-78
2021/11/30 01:24:16;;;;;;;;;12.50;12.00;;;;;10.59;100.00;101433.28;5078308;28;45536;-79
2021/11/30 01:26:42;;;;;;;;;13.75;11.75;;;;;10.65;100.00;101441.72;5080272;28;45141;-79
2021/11/30 01:29:08;;;;;;;;;11.25;11.00;;;;;10.73;100.00;101433.38;5072575;28;45224;-79
2021/11/30 01:31:33;;;;;;;;;13.25;13.25;;;;;10.69;100.00;101431.84;5055675;28;45591;-79
2021/11/30 01:33:59;;;;;;;;;14.00;11.25;;;;;10.71;100.00;101432.63;5067414;28;45238;-78
2021/11/30 01:36:24;;;;;;;;;13.25;11.25;;;;;10.67;100.00;101441.63;5072553;28;45438;-77
2021/11/30 01:38:50;;;;;;;;;21.00;10.00;;;;;10.64;100.00;101420.69;5062279;28;45584;-78
2021/11/30 01:41:15;;;;;;;;;13.00;11.25;;;;;10.65;100.00;101425.88;5070594;28;45446;-78
2021/11/30 01:43:43;;;;;;;;;16.50;11.25;;;;;10.71;100.00;101430.81;5059640;28;47474;-78
2021/11/30 01:46:13;;;;;;;;;15.25;13.00;;;;;10.73;100.00;101433.38;5065838;28;45486;-77
2021/11/30 01:51:25;;;;;;;;;13.00;12.00;;;;;10.63;100.00;101414.56;5073869;27;45278;-78
2021/11/30 01:53:51;;;;;;;;;10.75;10.00;;;;;10.71;100.00;101409.69;5088623;27;45623;-78
2021/11/30 01:56:17;;;;;;;;;18.50;11.75;;;;;10.80;100.00;101408.31;5061624;28;45827;-78
2021/11/30 01:58:45;;;;;;;;;13.75;9.75;;;;;10.88;100.00;101406.91;5081307;28;45339;-78
2021/11/30 02:01:11;;;;;;;;;16.00;10.50;;;;;10.74;100.00;101395.47;5046908;28;45658;-78
2021/11/30 02:03:36;;;;;;;;;12.75;8.75;;;;;10.61;100.00;101407.66;5071299;28;45514;-78
2021/11/30 02:06:02;;;;;;;;;17.75;12.75;;;;;10.68;100.00;101409.00;5070032;27;45434;-78
2021/11/30 02:08:28;;;;;;;;;12.50;9.75;;;;;10.65;100.00;101398.63;5092693;27;45347;-77
2021/11/30 02:10:56;;;;;;;;;9.00;8.75;;;;;10.79;100.00;101390.75;5085701;28;45383;-78
2021/11/30 02:13:22;;;;;;;;;13.75;12.25;;;;;10.87;100.00;101393.78;5064051;28;46918;-78
2021/11/30 02:15:51;;;;;;;;;13.50;10.75;;;;;10.93;100.00;101403.13;5083683;28;45407;-78
2021/11/30 02:18:22;;;;;;;;;13.50;10.75;;;;;10.97;100.00;101397.59;5083183;28;45473;-78
2021/11/30 02:20:49;;;;;;;;;10.25;9.50;;;;;11.05;100.00;101403.28;5061740;28;45405;-78
2021/11/30 02:23:31;;;;;;;;;15.50;11.25;;;;;11.08;100.00;101389.06;5063217;28;47522;-78
2021/11/30 02:25:59;;;;;;;;;14.00;10.00;;;;;11.22;100.00;101395.19;5083894;27;45835;-78
2021/11/30 02:28:24;;;;;;;;;17.25;11.50;;;;;10.91;100.00;101379.47;5108262;27;45363;-78
2021/11/30 02:30:50;;;;;;;;;10.50;10.00;;;;;10.95;100.00;101367.78;5088069;27;45219;-78
2021/11/30 02:33:15;;;;;;;;;10.00;9.75;;;;;11.07;100.00;101382.06;5069370;28;46519;-78
2021/11/30 02:35:41;;;;;;;;;15.50;9.75;;;;;10.95;100.00;101377.47;5073063;28;45206;-78
2021/11/30 02:38:08;;;;;;;;;13.00;10.00;;;;;10.88;100.00;101379.66;5076517;28;45466;-78
2021/11/30 02:40:35;;;;;;;;;17.00;12.25;;;;;10.77;100.00;101360.91;5092364;27;45315;-78
2021/11/30 02:43:01;;;;;;;;;11.75;11.75;;;;;10.76;100.00;101362.72;5081182;27;46544;-78
2021/11/30 02:45:27;;;;;;;;;10.00;10.00;;;;;10.82;100.00;101359.72;5070578;28;45754;-78
2021/11/30 02:47:52;;;;;;;;;12.25;10.00;;;;;11.03;100.00;101362.88;5070207;28;45405;-79
2021/11/30 02:50:18;;;;;;;;;12.00;9.50;;;;;11.03;100.00;101368.16;5069283;28;45408;-79
2021/11/30 02:52:43;;;;;;;;;12.00;11.25;;;;;11.03;100.00;101360.22;5063563;28;47515;-78
2021/11/30 02:55:09;;;;;;;;;12.00;10.50;;;;;11.12;100.00;101364.13;5063532;28;45813;-78
2021/11/30 02:57:34;;;;;;;;;14.50;13.00;;;;;10.91;100.00;101363.63;5068647;27;45601;-79
2021/11/30 02:59:59;;;;;;;;;11.50;11.50;;;;;11.12;100.00;101364.97;5075639;28;45377;-78
2021/11/30 03:02:27;;;;;;;;;10.50;9.50;;;;;10.96;100.00;101361.53;5082398;28;46548;-79
2021/11/30 03:04:58;;;;;;;;;13.50;11.00;;;;;11.10;100.00;101369.53;5075474;27;45868;-78
2021/11/30 03:07:30;;;;;;;;;12.75;10.25;;;;;11.21;100.00;101368.84;5073183;27;45442;-78
2021/11/30 03:09:56;;;;;;;;;13.50;9.50;;;;;11.29;100.00;101384.28;5062493;28;45648;-78
2021/11/30 03:12:23;;;;;;;;;13.50;10.50;;;;;11.38;100.00;101375.78;5049661;28;48583;-78
2021/11/30 03:14:49;;;;;;;;;10.25;10.00;;;;;11.39;100.00;101372.19;5061270;28;46914;-78
2021/11/30 03:17:16;;;;;;;;;20.25;11.50;;;;;11.55;100.00;101371.16;5076487;28;45483;-78
2021/11/30 03:19:41;;;;;;;;;17.25;10.00;;;;;11.59;100.00;101369.16;5080767;28;45341;-79
2021/11/30 03:22:08;;;;;;;;;10.50;9.00;;;;;11.63;100.00;101358.31;5088564;27;47243;-79
2021/11/30 03:24:33;;;;;;;;;12.00;10.25;;;;;11.31;100.00;101367.34;5078650;28;45300;-78
2021/11/30 03:26:59;;;;;;;;;10.00;10.00;;;;;11.16;100.00;101379.72;5080573;28;45307;-78
2021/11/30 03:29:25;;;;;;;;;10.25;10.00;;;;;11.13;100.00;101387.81;5081594;28;45390;-78
2021/11/30 03:33:58;;;;;;;;;13.75;9.50;;;;;11.54;100.00;101380.06;5083434;28;45338;-79
2021/11/30 03:34:37;;;;;;;;;13.00;11.00;;;;;11.58;100.00;101391.28;5068916;28;45349;-79
2021/11/30 03:37:06;;;;;;;;;15.00;11.25;;;;;11.81;100.00;101397.84;5065359;28;45526;-79
2021/11/30 03:39:31;;;;;;;;;15.50;13.25;;;;;11.65;100.00;101379.38;5066444;28;45315;-79
2021/11/30 03:41:58;;;;;;;;;17.75;10.75;;;;;11.67;100.00;101380.13;5085465;27;45540;-79
2021/11/30 03:44:25;;;;;;;;;12.00;10.00;;;;;11.61;100.00;101399.03;5063466;28;45693;-79
2021/11/30 03:46:51;;;;;;;;;11.25;7.50;;;;;11.56;100.00;101393.19;5072776;28;45285;-79
2021/11/30 03:49:18;;;;;;;;;15.25;10.00;;;;;11.78;100.00;101390.94;5072820;28;45476;-79
2021/11/30 03:51:45;;;;;;;;;11.00;9.75;;;;;13.94;100.00;101383.53;5081782;28;46587;-79
2021/11/30 03:54:11;;;;;;;;;9.50;6.50;;;;;12.45;100.00;101386.66;5083442;28;45237;-79
2021/11/30 03:56:37;;;;;;;;;17.00;14.25;;;;;12.14;100.00;101384.25;5064622;27;45469;-79
2021/11/30 03:59:03;;;;;;;;;13.00;10.50;;;;;12.14;100.00;101393.06;5075703;28;45891;-79
2021/11/30 04:01:29;;;;;;;;;12.50;9.50;;;;;11.81;100.00;101396.03;5069432;28;46403;-79
2021/11/30 04:03:56;;;;;;;;;16.50;13.50;;;;;11.83;100.00;101395.94;5062202;28;45714;-79
2021/11/30 04:06:22;;;;;;;;;14.75;12.00;;;;;11.78;100.00;101387.44;5081806;28;45307;-79
2021/11/30 04:08:47;;;;;;;;;14.50;11.00;;;;;11.86;100.00;101408.97;5067882;28;45488;-78
2021/11/30 04:11:13;;;;;;;;;15.00;13.00;;;;;11.86;100.00;101407.19;5065021;28;47425;-78
2021/11/30 04:13:38;;;;;;;;;16.00;12.50;;;;;11.90;100.00;101398.13;5072953;28;45491;-78
2021/11/30 04:16:04;;;;;;;;;14.00;9.00;;;;;11.98;100.00;101379.94;5082300;28;45422;-79
2021/11/30 04:18:31;;;;;;;;;6.50;6.00;;;;;11.96;100.00;101387.13;5084690;28;45356;-79
2021/11/30 04:20:57;;;;;;;;;18.50;13.00;;;;;11.82;100.00;101389.81;5082336;28;45295;-79
2021/11/30 04:23:25;;;;;;;;;16.00;13.00;;;;;11.81;100.00;101388.09;5066204;28;45447;-78
2021/11/30 04:25:50;;;;;;;;;13.00;11.25;;;;;11.77;100.00;101388.38;5061424;28;45545;-79
2021/11/30 04:28:15;;;;;;;;;19.75;13.00;;;;;11.62;100.00;101384.88;5074025;28;45414;-79
2021/11/30 04:30:41;;;;;;;;;21.25;13.00;;;;;11.52;100.00;101378.44;5062513;28;48186;-79
2021/11/30 04:33:07;;;;;;;;;16.00;14.00;;;;;11.51;100.00;101374.94;5072183;28;45485;-79
2021/11/30 04:35:32;;;;;;;;;16.25;10.75;;;;;11.42;100.00;101375.50;5067505;28;45492;-78
2021/11/30 04:37:57;;;;;;;;;13.75;13.75;;;;;11.40;100.00;101363.31;5070092;27;45307;-79
2021/11/30 04:40:23;;;;;;;;;23.25;12.00;;;;;11.49;100.00;101363.59;5061967;28;46885;-78
2021/11/30 04:42:49;;;;;;;;;19.50;12.25;;;;;11.44;100.00;101376.25;5064077;28;45481;-79
2021/11/30 04:46:01;;;;;;;;;13.75;11.75;;;;;11.56;100.00;101370.19;5076856;28;45446;-79
2021/11/30 04:48:05;;;;;;;;;12.50;9.25;;;;;11.48;100.00;101359.25;5057507;28;45422;-78
2021/11/30 04:50:35;;;;;;;;;15.00;12.00;;;;;11.09;100.00;101361.69;5065034;28;45359;-78
2021/11/30 04:53:01;;;;;;;;;14.25;11.75;;;;;11.23;100.00;101357.25;5049754;28;45482;-78
2021/11/30 04:55:30;;;;;;;;;17.00;13.00;;;;;11.30;100.00;101370.09;5082389;27;45414;-78
2021/11/30 04:58:00;;;;;;;;;14.50;10.75;;;;;11.38;100.00;101373.16;5081314;28;45706;-78
2021/11/30 05:00:28;;;;;;;;;15.00;10.50;;;;;11.38;100.00;101368.69;5057732;28;46296;-79
2021/11/30 05:02:54;;;;;;;;;12.50;10.00;;;;;11.37;100.00;101376.72;5084107;27;45597;-79
2021/11/30 05:05:19;;;;;;;;;14.00;10.00;;;;;11.27;100.00;101383.50;5087559;27;44837;-79
2021/11/30 05:07:46;;;;;;;;;17.25;12.00;;;;;11.17;100.00;101380.56;5064786;28;45298;-78
2021/11/30 05:10:13;;;;;;;;;18.25;12.75;;;;;11.04;100.00;101375.16;5076849;27;45407;-77
2021/11/30 05:12:40;;;;;;;;;13.00;10.25;;;;;11.07;100.00;101371.47;5080870;28;45411;-78
2021/11/30 05:15:06;;;;;;;;;13.25;10.50;;;;;11.24;100.00;101374.81;5081698;28;45303;-77
2021/11/30 05:17:32;;;;;;;;;14.75;14.75;;;;;11.32;100.00;101371.72;5082305;28;45521;-78
2021/11/30 05:19:57;;;;;;;;;13.50;12.00;;;;;11.37;100.00;101356.44;5064588;28;46893;-78
2021/11/30 05:22:23;;;;;;;;;18.75;14.50;;;;;11.33;100.00;101364.63;5063727;28;45220;-78
2021/11/30 05:24:48;;;;;;;;;13.75;12.00;;;;;11.38;100.00;101362.56;5067344;28;45241;-76
2021/11/30 05:27:16;;;;;;;;;13.75;10.00;;;;;11.44;100.00;101360.41;5067406;27;45334;-78
2021/11/30 05:29:41;;;;;;;;;14.00;12.50;;;;;11.48;100.00;101347.81;5095020;27;45724;-78
2021/11/30 05:32:06;;;;;;;;;15.50;12.75;;;;;11.57;100.00;101349.88;5080469;28;45421;-78
2021/11/30 05:34:32;;;;;;;;;16.75;10.50;;;;;11.62;100.00;101346.03;5064270;28;45419;-78
2021/11/30 05:36:57;;;;;;;;;10.25;9.25;;;;;11.44;100.00;101336.59;5078063;28;45411;-78
2021/11/30 05:39:23;;;;;;;;;17.25;10.50;;;;;11.38;100.00;101344.88;5062969;28;45308;-78
2021/11/30 05:41:48;;;;;;;;;16.00;13.75;;;;;11.32;100.00;101329.41;5046358;28;45522;-78
2021/11/30 05:44:13;;;;;;;;;11.00;10.00;;;;;11.38;100.00;101341.41;5067578;28;45358;-78
2021/11/30 05:46:39;;;;;;;;;21.50;12.00;;;;;11.57;100.00;101339.31;5078458;28;45298;-78
2021/11/30 05:49:05;;;;;;;;;15.50;10.50;;;;;11.62;100.00;101351.31;5057492;28;48271;-78
2021/11/30 05:51:31;;;;;;;;;16.00;8.75;;;;;11.52;100.00;101344.03;5065705;28;45459;-78
2021/11/30 05:53:57;;;;;;;;;9.50;9.00;;;;;11.51;100.00;101350.28;5081703;27;45462;-78
2021/11/30 05:56:22;;;;;;;;;10.75;10.25;;;;;11.54;100.00;101339.53;5051480;28;45450;-77
2021/11/30 05:58:48;;;;;;;;;10.75;10.00;;;;;11.49;100.00;101350.38;5078380;28;46013;-78
2021/11/30 06:01:25;;;;;;;;;11.25;7.00;;;;;11.62;100.00;101339.88;5083213;27;45421;-79
2021/11/30 06:06:17;;;;;;;;;10.00;10.00;;;;;11.53;100.00;101328.09;5080186;27;45457;-78
2021/11/30 06:08:43;;;;;;;;;12.00;9.25;;;;;11.68;100.00;101349.22;5062836;28;46219;-79
2021/11/30 06:11:08;;;;;;;;;10.00;9.00;;;;;11.67;100.00;101342.22;5060207;28;45426;-80
2021/11/30 06:13:34;;;;;;;;;10.50;8.75;;;;;11.72;100.00;101350.75;5076743;28;44785;-79
2021/11/30 06:15:59;;;;;;;;;12.00;7.25;;;;;11.74;100.00;101347.06;5060840;28;45264;-80
2021/11/30 06:18:25;;;;;;;;;9.75;9.00;;;;;11.79;100.00;101347.66;5061445;27;47512;-80
2021/11/30 06:20:50;;;;;;;;;6.25;6.25;;;;;11.53;100.00;101341.31;5084392;27;45489;-79
2021/11/30 06:23:16;;;;;;;;;13.00;12.25;;;;;11.61;100.00;101354.06;5083122;28;45230;-84
2021/11/30 06:25:42;;;;;;;;;18.25;9.75;;;;;11.68;100.00;101344.78;5083287;28;45584;-80
2021/11/30 06:28:08;;;;;;;;;9.50;9.00;;;;;11.83;100.00;101350.97;5086286;27;45292;-80
2021/11/30 06:30:34;;;;;;;;;12.75;10.00;;;;;11.47;100.00;101325.81;5070751;28;45447;-79
2021/11/30 06:33:02;;;;;;;;;8.50;6.75;;;;;11.57;100.00;101334.03;5080397;28;45317;-79
2021/11/30 06:35:29;;;;;;;;;10.00;10.00;;;;;11.69;100.00;101346.50;5063897;28;45510;-79
2021/11/30 06:37:55;;;;;;;;;7.00;7.00;;;;;11.62;100.00;101346.03;5080850;27;45406;-79
2021/11/30 06:40:21;;;;;;;;;10.00;9.00;;;;;11.67;100.00;101351.03;5084262;27;45316;-79
2021/11/30 06:42:46;;;;;;;;;15.00;9.25;;;;;11.64;100.00;101348.59;5079890;27;45263;-77
2021/11/30 06:45:12;;;;;;;;;13.00;9.25;;;;;11.76;100.00;101354.91;5080528;27;45482;-77
2021/11/30 06:47:39;;;;;;;;;13.50;9.00;;;;;11.81;100.00;101347.56;5062548;28;47271;-77
2021/11/30 06:50:05;;;;;;;;;16.50;10.25;;;;;11.80;100.00;101325.53;5076716;28;45490;-77
2021/11/30 06:52:31;;;;;;;;;6.00;6.00;;;;;11.77;100.00;101319.59;5065346;27;45590;-77
2021/11/30 06:54:56;;;;;;;;;13.50;9.25;;;;;11.92;100.00;101330.06;5082847;27;45537;-77
2021/11/30 06:57:23;;;;;;;;;9.00;7.50;;;;;11.90;100.00;101334.59;5087697;27;46164;-77
2021/11/30 06:59:49;;;;;;;;;9.50;6.25;;;;;11.81;100.00;101334.34;5093767;27;45673;-77
2021/11/30 07:02:15;;;;;;;;;9.75;9.00;;;;;11.86;100.00;101321.66;5088100;27;45429;-78
2021/11/30 07:04:43;;;;;;;;;14.00;10.00;;;;;11.77;100.00;101333.66;5064864;28;45518;-78
2021/11/30 07:07:22;;;;;;;;;17.75;11.00;;;;;11.96;100.00;101338.63;5087492;27;48507;-78
2021/11/30 07:14:57;;;;;;;;;13.75;10.00;;;;;12.13;100.00;101341.06;5070672;28;45573;-78
2021/11/30 07:17:22;;;;;;;;;12.00;11.25;;;;;12.07;100.00;101333.50;5075402;28;48168;-76
2021/11/30 07:19:48;;;;;;;;;13.75;9.00;;;;;12.06;100.00;101336.25;5084897;27;45342;-78
2021/11/30 07:22:13;;;;;;;;;12.75;10.25;;;;;11.92;100.00;101359.19;5061221;28;45502;-80
2021/11/30 07:24:38;;;;;;;;;17.25;8.00;;;;;11.95;100.00;101343.09;5068114;27;45430;-80
2021/11/30 07:27:04;;;;;;;;;15.75;12.00;;;;;11.97;100.00;101343.00;5065558;28;46500;-79
2021/11/30 07:29:30;;;;;;;;;10.00;10.00;;;;;12.05;100.00;101353.09;5078519;28;45757;-79
2021/11/30 07:31:57;;;;;;;;;12.75;11.00;;;;;11.93;100.00;101346.75;5086743;27;45674;-79
2021/11/30 07:34:22;;;;;;;;;17.00;12.50;;;;;12.07;100.00;101351.19;5084067;27;45576;-80
2021/11/30 07:36:47;;;;;;;;;13.25;12.00;;;;;12.10;100.00;101341.28;5082375;27;47153;-82
2021/11/30 07:39:13;;;;;;;;;11.00;9.25;;;;;12.22;100.00;101351.06;5073784;28;45376;-80
2021/11/30 07:41:38;;;;;;;;;10.00;10.00;;;;;12.11;100.00;101363.31;5048066;28;45534;-79
2021/11/30 07:44:05;;;;;;;;;12.75;10.00;;;;;12.20;100.00;101342.34;5060985;28;45487;-78
2021/11/30 07:46:30;;;;;;;;;15.25;12.00;;;;;12.39;100.00;101357.91;5074931;28;46023;-79
2021/11/30 07:48:56;;;;;;;;;18.25;12.75;;;;;12.21;100.00;101359.09;5086741;27;45515;-80
2021/11/30 07:51:22;;;;;;;;;15.00;11.25;;;;;12.23;100.00;101349.25;5064692;28;45395;-79
2021/11/30 07:53:48;;;;;;;;;13.00;11.00;;;;;12.29;100.00;101355.00;5050585;28;45866;-82
2021/11/30 07:56:14;;;;;;;;;18.50;13.00;;;;;12.24;100.00;101357.09;5090763;28;46777;-82
2021/11/30 07:58:40;;;;;;;;;12.00;10.50;;;;;12.27;100.00;101350.78;5054191;28;45387;-81
2021/11/30 08:01:06;;;;;;;;;15.25;11.75;;;;;12.33;100.00;101355.66;5061063;28;45288;-82
2021/11/30 08:03:31;;;;;;;;;12.00;10.25;;;;;12.29;100.00;101354.19;5080815;28;45343;-81
2021/11/30 08:05:57;;;;;;;;;19.25;10.50;;;;;12.25;100.00;101355.31;5081174;28;46202;-81
2021/11/30 08:08:22;;;;;;;;;16.75;12.25;;;;;12.24;100.00;101362.41;5063153;28;45241;-81
2021/11/30 08:10:48;;;;;;;;;11.00;10.25;;;;;12.09;100.00;101354.59;5081049;27;45644;-82
2021/11/30 08:13:13;;;;;;;;;16.25;14.75;;;;;12.14;100.00;101353.34;5077730;28;45513;-82
2021/11/30 08:15:38;;;;;;;;;15.25;12.50;;;;;12.40;100.00;101369.34;5062961;28;47613;-81
2021/11/30 08:18:05;;;;;;;;;16.50;13.50;;;;;12.24;100.00;101366.84;5063093;28;45264;-82
2021/11/30 08:20:32;;;;;;;;;22.00;15.00;;;;;12.28;100.00;101369.22;5081351;28;45471;-82
2021/11/30 08:22:58;;;;;;;;;18.25;13.50;;;;;12.16;100.00;101370.00;5063177;28;45746;-82
2021/11/30 08:25:24;;;;;;;;;21.25;14.50;;;;;12.10;100.00;101362.44;5062786;28;48153;-82
2021/11/30 08:27:51;;;;;;;;;17.00;14.00;;;;;12.11;100.00;101372.06;5080163;28;45477;-82
2021/11/30 08:30:17;;;;;;;;;14.00;13.75;;;;;12.15;100.00;101364.78;5082999;28;45414;-81
2021/11/30 08:32:43;;;;;;;;;17.00;13.75;;;;;12.20;100.00;101371.47;5084332;28;45170;-81
2021/11/30 08:35:09;;;;;;;;;26.00;17.00;;;;;12.02;100.00;101359.41;5087873;27;46120;-82
2021/11/30 08:37:34;;;;;;;;;17.75;14.00;;;;;12.04;100.00;101373.41;5076888;27;45233;-81
2021/11/30 08:40:01;;;;;;;;;21.25;15.00;;;;;12.23;100.00;101378.38;5059478;28;45242;-81
2021/11/30 08:42:27;;;;;;;;;20.50;15.50;;;;;12.30;100.00;101385.81;5067414;27;45383;-82
2021/11/30 08:44:53;;;;;;;;;20.75;14.00;;;;;12.28;100.00;101376.31;5082791;27;47105;-82
2021/11/30 08:47:23;;;;;;;;;17.25;14.00;;;;;12.31;100.00;101374.28;5101372;27;45396;-82
2021/11/30 08:49:49;;;;;;;;;22.50;15.25;;;;;12.43;100.00;101356.75;5082919;27;45419;-82
2021/11/30 08:52:18;;;;;;;;;25.50;15.25;;;;;12.26;100.00;101372.91;5101117;27;45245;-81
2021/11/30 08:54:45;;;;;;;;;26.25;13.00;;;;;12.29;100.00;101360.28;5076379;27;45498;-81
2021/11/30 08:57:11;;;;;;;;;22.75;19.00;;;;;12.24;100.00;101362.41;5063104;28;45516;-80
2021/11/30 08:59:38;;;;;;;;;23.50;18.00;;;;;12.45;100.00;101376.06;5078387;28;45232;-80
2021/11/30 09:02:05;;;;;;;;;21.75;16.25;;;;;12.35;100.00;101362.56;5084734;28;45244;-81
2021/11/30 09:04:31;;;;;;;;;22.50;18.75;;;;;12.44;100.00;101361.09;5088709;28;45511;-81
2021/11/30 09:06:56;;;;;;;;;21.25;18.75;;;;;12.29;100.00;101352.34;5098669;27;45390;-81
2021/11/30 09:09:22;;;;;;;;;19.50;12.75;;;;;12.38;100.00;101344.78;5086384;28;45974;-81
2021/11/30 09:11:47;;;;;;;;;19.25;14.50;;;;;12.42;100.00;101348.91;5075509;27;45790;-80
2021/11/30 09:14:20;;;;;;;;;23.75;16.00;;;;;12.56;100.00;101356.81;5078434;28;46256;-77
2021/11/30 09:16:45;;;;;;;;;20.75;16.75;;;;;12.63;100.00;101374.00;5078891;28;45426;-79
2021/11/30 09:19:11;;;;;;;;;23.00;15.50;;;;;12.65;100.00;101365.00;5078387;28;44781;-80
2021/11/30 09:21:37;;;;;;;;;23.50;15.00;;;;;12.82;100.00;101376.28;5104446;27;44789;-78
2021/11/30 09:24:04;;;;;;;;;20.25;16.00;;;;;12.85;100.00;101373.41;5101528;27;46938;-80
2021/11/30 09:26:31;;;;;;;;;26.75;19.50;;;;;12.90;100.00;101372.16;5088412;27;45075;-80
2021/11/30 09:28:57;;;;;;;;;22.50;14.25;;;;;12.83;100.00;101376.19;5104599;27;45417;-79
2021/11/30 09:31:44;;;;;;;;;23.75;16.75;;;;;12.87;100.00;101367.06;5084128;27;44752;-80
2021/11/30 09:34:11;;;;;;;;;24.00;16.50;;;;;12.78;100.00;101361.53;5104906;27;45290;-80
2021/11/30 09:36:39;;;;;;;;;25.75;19.25;;;;;12.94;100.00;101359.53;5101407;27;44977;-80
2021/11/30 09:39:07;;;;;;;;;31.50;23.00;;;;;13.00;100.00;101369.75;5098641;27;45413;-79
2021/11/30 09:41:35;;;;;;;;;20.00;16.25;;;;;12.98;100.00;101369.00;5100654;28;44768;-80
2021/11/30 09:44:22;;;;;;;;;23.00;16.25;;;;;13.06;100.00;101374.63;5115007;27;45234;-79
2021/11/30 09:47:01;;;;;;;;;19.75;16.25;;;;;13.15;100.00;101374.03;5102929;27;45819;-81
2021/11/30 09:49:39;;;;;;;;;23.00;15.75;;;;;12.98;100.00;101384.91;5081889;28;44669;-79
2021/11/30 09:52:06;;;;;;;;;23.00;18.25;;;;;12.92;100.00;101378.22;5094999;28;45228;-80
2021/11/30 09:54:32;;;;;;;;;24.75;16.50;;;;;12.95;100.00;101380.63;5075327;28;47295;-79
2021/11/30 09:56:57;;;;;;;;;21.00;14.50;;;;;12.81;100.00;101375.44;5091563;28;45410;-80
2021/11/30 09:59:23;;;;;;;;;14.50;14.50;;;;;12.94;100.00;101370.13;5092781;28;44726;-79
2021/11/30 10:01:49;;;;;;;;;23.00;20.50;;;;;12.98;100.00;101377.78;5094660;27;45265;-79
2021/11/30 10:04:15;;;;;;;;;17.25;16.25;;;;;13.15;100.00;101368.72;5096818;27;46194;-80
2021/11/30 10:06:40;;;;;;;;;25.25;16.00;;;;;13.02;100.00;101360.72;5080575;28;45435;-80
2021/11/30 10:09:21;;;;;;;;;21.75;17.25;;;;;13.33;100.00;101359.50;5080561;28;45433;-80
2021/11/30 10:11:58;;;;;;;;;18.75;14.50;;;;;13.38;100.00;101362.66;5085511;28;45338;-80
2021/11/30 10:14:27;;;;;;;;;21.50;16.25;;;;;13.73;100.00;101365.53;5108448;27;45307;-80
2021/11/30 10:17:22;;;;;;;;;17.50;14.75;;;;;13.94;100.00;101365.78;5114180;27;45411;-79
2021/11/30 10:19:54;;;;;;;;;22.00;16.50;;;;;13.86;100.00;101366.34;5115145;27;45289;-82
2021/11/30 10:22:52;;;;;;;;;23.50;18.00;;;;;14.10;100.00;101363.75;5117310;27;45401;-80
2021/11/30 10:25:22;;;;;;;;;26.00;16.75;;;;;14.17;100.00;101359.69;5116119;27;45395;-81
2021/11/30 10:27:55;;;;;;;;;19.75;15.00;;;;;14.10;100.00;101363.75;5085303;27;45749;-81
2021/11/30 10:30:24;;;;;;;;;17.50;15.75;;;;;13.98;100.00;101367.28;5103825;27;45264;-81
2021/11/30 10:32:51;;;;;;;;;22.00;15.25;;;;;14.00;100.00;101356.56;5085247;27;45379;-81
2021/11/30 10:35:19;;;;;;;;;15.75;14.50;;;;;14.07;100.00;101355.16;5101004;27;46293;-80
2021/11/30 10:37:46;;;;;;;;;21.50;18.00;;;;;14.03;100.00;101361.63;5072160;28;45262;-80
2021/11/30 10:40:18;;;;;;;;;18.25;15.25;;;;;14.02;100.00;101359.97;5083372;28;45379;-81
2021/11/30 10:42:46;;;;;;;;;18.75;12.75;;;;;13.91;100.00;101367.84;5061711;28;45932;-82
2021/11/30 10:45:23;;;;;;;;;23.25;16.75;;;;;13.92;100.00;101356.25;5079720;28;45465;-81
2021/11/30 10:47:49;;;;;;;;;22.25;15.75;;;;;14.00;100.00;101360.06;5084705;28;45459;-81
2021/11/30 10:50:21;;;;;;;;;20.50;16.50;;;;;14.06;100.00;101350.78;5086741;28;45443;-82
2021/11/30 10:52:46;;;;;;;;;16.50;14.50;;;;;14.02;100.00;101346.69;5085239;28;45469;-81
2021/11/30 10:55:16;;;;;;;;;25.75;16.00;;;;;14.12;100.00;101335.25;5083495;28;46376;-80
2021/11/30 10:57:43;;;;;;;;;17.75;11.75;;;;;14.03;100.00;101345.69;5083032;28;45703;-81
2021/11/30 11:00:32;;;;;;;;;21.25;11.25;;;;;14.18;100.00;101347.25;5061372;28;45353;-80
2021/11/30 11:03:02;;;;;;;;;21.00;15.50;;;;;14.14;100.00;101343.13;5078573;28;45485;-81
2021/11/30 11:05:35;;;;;;;;;15.25;14.25;;;;;14.20;100.00;101348.00;5082812;28;46229;-81
2021/11/30 11:08:10;;;;;;;;;11.50;10.50;;;;;14.15;100.00;101340.34;5082929;28;45394;-81
2021/11/30 11:10:44;;;;;;;;;10.75;10.75;;;;;14.14;100.00;101325.38;5082802;28;45386;-81
2021/11/30 11:13:24;;;;;;;;;13.50;11.00;;;;;14.39;100.00;101342.19;5072880;28;45489;-81
2021/11/30 11:15:55;;;;;;;;;18.75;13.00;;;;;14.31;100.00;101324.13;5077463;28;46060;-80